createdAt,value
2018-08-04T00:01:44.349Z,101075.82
2018-08-04T00:04:13.446Z,101074.11
2018-08-04T00:06:42.560Z,101068.06
2018-08-04T00:09:13.177Z,101067.34
2018-08-04T00:11:42.666Z,101061.78
2018-08-04T00:14:12.030Z,101062.17
2018-08-04T00:16:41.185Z,101059.53
2018-08-04T00:19:10.322Z,101055.91
2018-08-04T00:21:39.418Z,101056.38
2018-08-04T00:24:08.542Z,101051.97
2018-08-04T00:26:37.637Z,101054.88
2018-08-04T00:29:06.766Z,101052.91
2018-08-04T00:31:35.874Z,101045.97
2018-08-04T00:34:05.039Z,101039.58
2018-08-04T00:36:34.153Z,101046.11
2018-08-04T00:39:03.337Z,101051.70
2018-08-04T00:41:32.445Z,101057.89
2018-08-04T00:44:01.594Z,101054.16
2018-08-04T00:46:30.723Z,101059.23
2018-08-04T00:48:59.897Z,101061.72
2018-08-04T00:51:29.021Z,101060.03
2018-08-04T00:53:58.139Z,101065.78
2018-08-04T00:56:27.249Z,101063.27
2018-08-04T00:58:56.412Z,101063.33
2018-08-04T01:01:25.506Z,101053.20
2018-08-04T01:03:54.669Z,101049.56
2018-08-04T01:06:23.787Z,101053.73
2018-08-04T01:08:52.886Z,101059.89
2018-08-04T01:11:21.997Z,101049.72
2018-08-04T01:13:51.098Z,101055.46
2018-08-04T01:16:20.213Z,101052.53
2018-08-04T01:18:49.329Z,101050.32
2018-08-04T01:21:18.453Z,101052.75
2018-08-04T01:23:47.555Z,101041.41
2018-08-04T01:26:16.658Z,101046.61
2018-08-04T01:28:45.745Z,101044.53
2018-08-04T01:31:14.868Z,101036.80
2018-08-04T01:33:43.957Z,101033.52
2018-08-04T01:36:13.094Z,101040.87
2018-08-04T01:38:42.221Z,101037.59
2018-08-04T01:41:11.337Z,101037.89
2018-08-04T01:43:40.469Z,101038.03
2018-08-04T01:46:09.585Z,101036.00
2018-08-04T01:48:38.721Z,101043.45
2018-08-04T01:51:07.833Z,101044.19
2018-08-04T01:53:36.995Z,101040.33
2018-08-04T01:56:06.085Z,101039.17
2018-08-04T01:58:35.207Z,101040.63
2018-08-04T02:01:04.332Z,101038.30
2018-08-04T02:03:33.469Z,101039.75
2018-08-04T02:06:02.581Z,101039.16
2018-08-04T02:08:31.697Z,101041.76
2018-08-04T02:11:00.814Z,101045.59
2018-08-04T02:13:29.942Z,101048.25
2018-08-04T02:15:59.053Z,101049.80
2018-08-04T02:18:28.173Z,101046.94
2018-08-04T02:20:57.294Z,101043.78
2018-08-04T02:23:26.401Z,101050.28
2018-08-04T02:25:55.493Z,101051.65
2018-08-04T02:28:24.618Z,101052.84
2018-08-04T02:30:53.744Z,101047.39
2018-08-04T02:33:22.839Z,101051.02
2018-08-04T02:35:51.947Z,101047.66
2018-08-04T02:38:21.061Z,101045.86
2018-08-04T02:40:50.230Z,101041.92
2018-08-04T02:43:19.348Z,101043.52
2018-08-04T02:45:48.457Z,101039.40
2018-08-04T02:48:17.593Z,101038.34
2018-08-04T02:50:46.682Z,101044.58
2018-08-04T02:53:15.783Z,101046.34
2018-08-04T02:55:44.914Z,101050.13
2018-08-04T02:58:14.006Z,101051.28
2018-08-04T03:00:43.131Z,101044.73
2018-08-04T03:03:12.214Z,101040.21
2018-08-04T03:05:41.538Z,101042.85
2018-08-04T03:08:10.641Z,101040.66
2018-08-04T03:10:39.742Z,101035.72
2018-08-04T03:13:08.881Z,101035.53
2018-08-04T03:15:38.005Z,101034.05
2018-08-04T03:18:07.149Z,101042.02
2018-08-04T03:20:36.261Z,101037.41
2018-08-04T03:23:05.455Z,101031.16
2018-08-04T03:25:34.617Z,101032.48
2018-08-04T03:28:03.745Z,101040.15
2018-08-04T03:30:32.873Z,101038.89
2018-08-04T03:33:02.011Z,101044.20
2018-08-04T03:35:31.109Z,101047.33
2018-08-04T03:38:00.229Z,101055.45
2018-08-04T03:40:29.374Z,101053.89
2018-08-04T03:42:58.480Z,101051.25
2018-08-04T03:45:27.616Z,101050.14
2018-08-04T03:47:56.729Z,101051.30
2018-08-04T03:50:25.881Z,101054.35
2018-08-04T03:52:54.995Z,101048.50
2018-08-04T03:55:24.109Z,101043.52
2018-08-04T03:57:53.224Z,101052.63
2018-08-04T04:00:22.313Z,101047.57
2018-08-04T04:02:51.463Z,101048.41
2018-08-04T04:05:20.559Z,101053.66
2018-08-04T04:07:49.689Z,101057.39
2018-08-04T04:10:18.817Z,101051.45
2018-08-04T04:12:47.921Z,101050.91
2018-08-04T04:15:17.064Z,101056.77
2018-08-04T04:17:47.448Z,101051.95
2018-08-04T04:20:18.303Z,101055.92
2018-08-04T04:22:47.649Z,101057.33
2018-08-04T04:25:16.800Z,101061.68
2018-08-04T04:27:45.885Z,101060.36
2018-08-04T04:30:15.465Z,101063.02
2018-08-04T04:32:44.785Z,101060.23
2018-08-04T04:35:13.905Z,101054.28
2018-08-04T04:37:43.005Z,101052.48
2018-08-04T04:40:12.154Z,101055.67
2018-08-04T04:42:41.261Z,101061.63
2018-08-04T04:45:10.393Z,101065.20
2018-08-04T04:47:39.491Z,101066.30
2018-08-04T04:50:08.624Z,101069.27
2018-08-04T04:52:37.741Z,101064.42
2018-08-04T04:55:06.889Z,101065.59
2018-08-04T04:57:36.018Z,101074.52
2018-08-04T05:00:05.385Z,101074.28
2018-08-04T05:02:34.534Z,101081.78
2018-08-04T05:05:03.689Z,101084.81
2018-08-04T05:07:32.799Z,101088.63
2018-08-04T05:10:01.925Z,101089.41
2018-08-04T05:12:31.049Z,101081.00
2018-08-04T05:15:00.183Z,101080.38
2018-08-04T05:17:29.293Z,101089.80
2018-08-04T05:19:58.385Z,101083.09
2018-08-04T05:22:27.547Z,101087.02
2018-08-04T05:24:57.100Z,101088.08
2018-08-04T05:27:26.192Z,101081.45
2018-08-04T05:29:55.297Z,101090.34
2018-08-04T05:32:24.385Z,101102.28
2018-08-04T05:34:53.527Z,101104.94
2018-08-04T05:37:22.694Z,101107.07
2018-08-04T05:39:51.786Z,101114.02
2018-08-04T05:42:20.929Z,101106.12
2018-08-04T05:44:50.050Z,101109.84
2018-08-04T05:47:19.154Z,101102.43
2018-08-04T05:49:48.250Z,101100.34
2018-08-04T05:52:17.341Z,101102.73
2018-08-04T05:54:46.438Z,101104.88
2018-08-04T05:57:15.553Z,101105.41
2018-08-04T05:59:44.697Z,101110.91
2018-08-04T06:02:13.998Z,101115.09
2018-08-04T06:04:43.115Z,101124.05
2018-08-04T06:07:12.210Z,101114.52
2018-08-04T06:09:41.321Z,101106.52
2018-08-04T06:12:10.429Z,101106.81
2018-08-04T06:14:39.548Z,101114.81
2018-08-04T06:17:08.689Z,101117.03
2018-08-04T06:19:37.800Z,101117.03
2018-08-04T06:22:06.990Z,101115.36
2018-08-04T06:24:36.338Z,101123.19
2018-08-04T06:27:05.530Z,101118.84
2018-08-04T06:29:35.300Z,101123.83
2018-08-04T06:32:12.350Z,101121.61
2018-08-04T06:34:48.147Z,101128.14
2018-08-04T06:37:17.887Z,101116.62
2018-08-04T06:39:50.168Z,101122.72
2018-08-04T06:42:19.597Z,101123.27
2018-08-04T06:44:50.926Z,101126.28
2018-08-04T06:47:20.321Z,101134.52
2018-08-04T06:49:49.924Z,101133.64
2018-08-04T06:52:19.137Z,101131.10
2018-08-04T06:54:48.386Z,101134.48
2018-08-04T06:57:17.574Z,101125.96
2018-08-04T06:59:47.709Z,101123.66
2018-08-04T07:02:16.821Z,101123.47
2018-08-04T07:04:45.965Z,101129.27
2018-08-04T07:07:15.102Z,101129.05
2018-08-04T07:09:44.638Z,101124.91
2018-08-04T07:12:13.800Z,101126.05
2018-08-04T07:14:42.982Z,101123.83
2018-08-04T07:17:12.187Z,101111.86
2018-08-04T07:19:41.305Z,101118.89
2018-08-04T07:22:10.429Z,101123.27
2018-08-04T07:24:39.658Z,101110.52
2018-08-04T07:27:08.845Z,101108.23
2018-08-04T07:29:37.970Z,101115.67
2018-08-04T07:32:07.216Z,101114.15
2018-08-04T07:34:36.322Z,101112.06
2018-08-04T07:37:05.829Z,101106.70
2018-08-04T07:39:35.038Z,101106.15
2018-08-04T07:42:04.234Z,101112.81
2018-08-04T07:44:33.365Z,101121.66
2018-08-04T07:47:02.501Z,101124.42
2018-08-04T07:49:31.609Z,101126.34
2018-08-04T07:52:00.868Z,101123.09
2018-08-04T07:54:30.019Z,101126.25
2018-08-04T07:56:59.137Z,101131.22
2018-08-04T07:59:28.290Z,101128.94
2018-08-04T08:01:57.413Z,101127.06
2018-08-04T08:04:26.554Z,101126.09
2018-08-04T08:06:55.677Z,101128.37
2018-08-04T08:09:24.907Z,101117.51
2018-08-04T08:11:54.170Z,101124.20
2018-08-04T08:14:23.321Z,101116.66
2018-08-04T08:16:52.430Z,101120.02
2018-08-04T08:19:21.622Z,101121.31
2018-08-04T08:21:50.735Z,101128.52
2018-08-04T08:24:20.045Z,101122.55
2018-08-04T08:26:49.274Z,101133.06
2018-08-04T08:29:18.413Z,101132.25
2018-08-04T08:31:47.581Z,101129.81
2018-08-04T08:34:17.144Z,101133.30
2018-08-04T08:36:48.179Z,101129.44
2018-08-04T08:39:17.518Z,101124.20
2018-08-04T08:41:46.658Z,101127.30
2018-08-04T08:44:15.789Z,101126.58
2018-08-04T08:46:44.901Z,101128.37
2018-08-04T08:49:14.071Z,101137.31
2018-08-04T08:51:43.169Z,101136.02
2018-08-04T08:54:12.448Z,101140.77
2018-08-04T08:56:41.453Z,101138.32
2018-08-04T08:59:10.590Z,101135.38
2018-08-04T09:01:39.702Z,101140.29
2018-08-04T09:04:09.123Z,101131.25
2018-08-04T09:06:38.239Z,101139.78
2018-08-04T09:09:09.001Z,101150.46
2018-08-04T09:11:38.331Z,101142.48
2018-08-04T09:14:07.529Z,101146.63
2018-08-04T09:16:36.692Z,101147.74
2018-08-04T09:19:05.997Z,101143.08
2018-08-04T09:21:35.188Z,101142.33
2018-08-04T09:24:04.441Z,101136.95
2018-08-04T09:26:33.570Z,101138.94
2018-08-04T09:29:02.746Z,101137.12
2018-08-04T09:31:31.909Z,101136.33
2018-08-04T09:34:01.029Z,101138.63
2018-08-04T09:36:30.157Z,101130.08
2018-08-04T09:39:00.043Z,101125.81
2018-08-04T09:41:29.227Z,101125.77
2018-08-04T09:43:58.333Z,101128.52
2018-08-04T09:46:27.478Z,101124.69
2018-08-04T09:48:56.610Z,101124.48
2018-08-04T09:51:25.780Z,101121.27
2018-08-04T09:53:54.931Z,101120.71
2018-08-04T09:56:24.065Z,101124.23
2018-08-04T09:58:53.223Z,101122.92
2018-08-04T10:01:27.689Z,101118.52
2018-08-04T10:03:56.843Z,101123.80
2018-08-04T10:06:25.989Z,101125.92
2018-08-04T10:08:55.105Z,101124.20
2018-08-04T10:11:24.258Z,101118.85
2018-08-04T10:13:53.361Z,101116.98
2018-08-04T10:16:22.553Z,101112.48
2018-08-04T10:18:51.709Z,101118.06
2018-08-04T10:21:20.901Z,101124.59
2018-08-04T10:23:50.038Z,101119.22
2018-08-04T10:26:19.198Z,101118.47
2018-08-04T10:28:48.310Z,101115.34
2018-08-04T10:31:17.450Z,101111.41
2018-08-04T10:33:46.599Z,101116.06
2018-08-04T10:36:15.791Z,101117.61
2018-08-04T10:38:44.913Z,101107.30
2018-08-04T10:41:14.054Z,101112.00
2018-08-04T10:43:43.197Z,101117.16
2018-08-04T10:46:12.358Z,101107.92
2018-08-04T10:48:41.472Z,101104.03
2018-08-04T10:51:10.629Z,101102.90
2018-08-04T10:53:39.757Z,101104.56
2018-08-04T10:56:08.906Z,101112.09
2018-08-04T10:58:38.081Z,101103.15
2018-08-04T11:01:07.374Z,101112.58
2018-08-04T11:03:36.578Z,101107.48
2018-08-04T11:06:05.873Z,101099.08
2018-08-04T11:08:35.038Z,101100.59
2018-08-04T11:11:04.234Z,101103.61
2018-08-04T11:13:33.357Z,101096.56
2018-08-04T11:16:02.487Z,101098.94
2018-08-04T11:18:31.922Z,101096.54
2018-08-04T11:21:01.518Z,101101.16
2018-08-04T11:23:32.141Z,101103.33
2018-08-04T11:26:01.282Z,101104.64
2018-08-04T11:28:30.409Z,101099.81
2018-08-04T11:30:59.577Z,101103.94
2018-08-04T11:33:28.665Z,101098.52
2018-08-04T11:35:57.831Z,101098.81
2018-08-04T11:38:26.997Z,101091.89
2018-08-04T11:40:56.133Z,101089.94
2018-08-04T11:43:25.375Z,101094.55
2018-08-04T11:45:54.497Z,101082.41
2018-08-04T11:48:23.641Z,101092.72
2018-08-04T11:50:52.847Z,101092.12
2018-08-04T11:53:22.007Z,101102.36
2018-08-04T11:55:51.184Z,101093.61
2018-08-04T11:58:20.903Z,101086.39
2018-08-04T12:00:50.117Z,101084.66
2018-08-04T12:03:19.430Z,101085.05
2018-08-04T12:05:48.602Z,101076.95
2018-08-04T12:08:17.730Z,101079.69
2018-08-04T12:10:46.887Z,101077.77
2018-08-04T12:13:16.072Z,101071.55
2018-08-04T12:15:45.252Z,101065.92
2018-08-04T12:18:14.495Z,101069.50
2018-08-04T12:20:43.522Z,101066.20
2018-08-04T12:23:12.687Z,101066.91
2018-08-04T12:25:41.847Z,101064.86
2018-08-04T12:28:11.007Z,101060.72
2018-08-04T12:30:40.225Z,101055.69
2018-08-04T12:33:09.393Z,101057.21
2018-08-04T12:35:38.636Z,101059.69
2018-08-04T12:38:07.913Z,101050.41
2018-08-04T12:40:37.176Z,101048.39
2018-08-04T12:43:06.701Z,101056.12
2018-08-04T12:45:36.075Z,101053.22
2018-08-04T12:48:05.431Z,101056.11
2018-08-04T12:50:34.728Z,101045.75
2018-08-04T12:53:04.136Z,101044.43
2018-08-04T12:55:33.502Z,101050.76
2018-08-04T12:58:02.692Z,101043.47
2018-08-04T13:00:31.809Z,101038.27
2018-08-04T13:03:00.965Z,101040.37
2018-08-04T13:05:30.105Z,101043.08
2018-08-04T13:07:59.313Z,101036.91
2018-08-04T13:10:28.521Z,101040.44
2018-08-04T13:12:57.674Z,101043.19
2018-08-04T13:15:26.838Z,101043.73
2018-08-04T13:17:56.124Z,101037.75
2018-08-04T13:20:25.481Z,101037.72
2018-08-04T13:22:55.710Z,101035.05
2018-08-04T13:25:25.006Z,101037.11
2018-08-04T13:27:54.671Z,101043.49
2018-08-04T13:30:24.136Z,101037.42
2018-08-04T13:32:53.381Z,101028.81
2018-08-04T13:35:22.753Z,101033.53
2018-08-04T13:37:51.923Z,101026.16
2018-08-04T13:40:21.352Z,101034.21
2018-08-04T13:42:50.600Z,101027.80
2018-08-04T13:45:19.779Z,101039.48
2018-08-04T13:47:48.965Z,101033.30
2018-08-04T13:50:18.446Z,101027.75
2018-08-04T13:52:48.380Z,101036.89
2018-08-04T13:55:17.617Z,101030.77
2018-08-04T13:57:47.105Z,101034.25
2018-08-04T14:00:16.651Z,101032.05
2018-08-04T14:02:47.723Z,101033.40
2018-08-04T14:05:18.822Z,101036.91
2018-08-04T14:07:48.090Z,101032.99
2018-08-04T14:10:18.084Z,101031.98
2018-08-04T14:12:47.334Z,101035.24
2018-08-04T14:15:16.860Z,101023.00
2018-08-04T14:17:46.692Z,101022.36
2018-08-04T14:20:17.077Z,101020.26
2018-08-04T14:22:46.324Z,101023.57
2018-08-04T14:25:15.585Z,101023.28
2018-08-04T14:27:44.908Z,101026.72
2018-08-04T14:30:14.066Z,101024.31
2018-08-04T14:32:43.184Z,101021.95
2018-08-04T14:35:12.359Z,101016.84
2018-08-04T14:37:41.505Z,101013.28
2018-08-04T14:40:10.695Z,101013.36
2018-08-04T14:42:39.853Z,101003.80
2018-08-04T14:45:08.982Z,101015.91
2018-08-04T14:47:38.145Z,101016.20
2018-08-04T14:50:07.650Z,101006.50
2018-08-04T14:52:37.028Z,101015.01
2018-08-04T14:55:06.673Z,101006.67
2018-08-04T14:57:35.854Z,101009.67
2018-08-04T15:00:05.469Z,101016.09
2018-08-04T15:02:34.666Z,101016.95
2018-08-04T15:05:03.898Z,101014.12
2018-08-04T15:07:33.125Z,101010.96
2018-08-04T15:10:02.349Z,101014.24
2018-08-04T15:12:31.483Z,101008.46
2018-08-04T15:15:00.648Z,101005.07
2018-08-04T15:17:29.813Z,101000.79
2018-08-04T15:19:59.021Z,100998.75
2018-08-04T15:22:28.147Z,100998.27
2018-08-04T15:24:57.469Z,101003.36
2018-08-04T15:27:26.690Z,100997.05
2018-08-04T15:29:55.822Z,100997.77
2018-08-04T15:32:24.933Z,101001.38
2018-08-04T15:34:54.050Z,100995.20
2018-08-04T15:37:23.198Z,101002.53
2018-08-04T15:39:53.409Z,100996.31
2018-08-04T15:42:22.545Z,101000.92
2018-08-04T15:44:51.690Z,101008.66
2018-08-04T15:47:20.850Z,101000.19
2018-08-04T15:49:50.116Z,101003.88
2018-08-04T15:52:19.278Z,100996.53
2018-08-04T15:54:48.411Z,101007.69
2018-08-04T15:57:17.525Z,101004.98
2018-08-04T15:59:46.848Z,101000.58
2018-08-04T16:02:16.030Z,100999.57
2018-08-04T16:04:45.248Z,101004.39
2018-08-04T16:07:14.521Z,100999.23
2018-08-04T16:09:43.725Z,100999.54
2018-08-04T16:12:12.921Z,100998.61
2018-08-04T16:14:42.084Z,100996.76
2018-08-04T16:17:11.248Z,100985.25
2018-08-04T16:19:40.577Z,100996.27
2018-08-04T16:22:09.903Z,100989.37
2018-08-04T16:24:39.702Z,100996.52
2018-08-04T16:27:09.097Z,100999.59
2018-08-04T16:29:38.506Z,100999.59
2018-08-04T16:32:07.862Z,100996.89
2018-08-04T16:34:37.247Z,101008.11
2018-08-04T16:37:06.741Z,100999.72
2018-08-04T16:39:36.388Z,100997.52
2018-08-04T16:42:05.848Z,100997.06
2018-08-04T16:44:35.474Z,101002.63
2018-08-04T16:47:05.196Z,100999.35
2018-08-04T16:49:35.378Z,100997.98
2018-08-04T16:52:05.029Z,101003.49
2018-08-04T16:54:35.340Z,101004.56
2018-08-04T16:57:05.776Z,101001.75
2018-08-04T16:59:36.192Z,101000.05
2018-08-04T17:02:06.177Z,101007.30
2018-08-04T17:04:38.560Z,101006.34
2018-08-04T17:07:08.567Z,101013.53
2018-08-04T17:09:38.597Z,101010.02
2018-08-04T17:12:08.211Z,101000.99
2018-08-04T17:14:37.605Z,101000.23
2018-08-04T17:17:07.633Z,100997.62
2018-08-04T17:19:38.136Z,101009.25
2018-08-04T17:22:08.002Z,101003.37
2018-08-04T17:24:37.387Z,101009.93
2018-08-04T17:27:07.216Z,101009.50
2018-08-04T17:29:37.119Z,101007.05
2018-08-04T17:32:07.956Z,101008.25
2018-08-04T17:34:37.252Z,101014.59
2018-08-04T17:37:07.070Z,101011.00
2018-08-04T17:39:36.344Z,101011.86
2018-08-04T17:42:05.838Z,101014.22
2018-08-04T17:44:35.131Z,101009.76
2018-08-04T17:47:04.373Z,101013.41
2018-08-04T17:49:33.605Z,101011.47
2018-08-04T17:52:02.944Z,101019.72
2018-08-04T17:54:32.228Z,101025.44
2018-08-04T17:57:01.387Z,101026.63
2018-08-04T17:59:30.490Z,101020.09
2018-08-04T18:02:00.001Z,101026.45
2018-08-04T18:04:29.111Z,101030.65
2018-08-04T18:06:58.286Z,101031.39
2018-08-04T18:09:27.393Z,101040.81
2018-08-04T18:11:56.529Z,101042.19
2018-08-04T18:14:25.634Z,101040.95
2018-08-04T18:16:54.797Z,101041.67
2018-08-04T18:19:23.897Z,101041.06
2018-08-04T18:21:53.091Z,101046.81
2018-08-04T18:24:22.246Z,101052.19
2018-08-04T18:26:51.498Z,101055.73
2018-08-04T18:29:20.639Z,101061.38
2018-08-04T18:31:50.833Z,101059.88
2018-08-04T18:34:20.011Z,101060.15
2018-08-04T18:36:49.181Z,101060.86
2018-08-04T18:39:18.303Z,101063.80
2018-08-04T18:41:47.466Z,101068.56
2018-08-04T18:44:16.626Z,101067.57
2018-08-04T18:46:45.803Z,101081.70
2018-08-04T18:49:15.003Z,101072.28
2018-08-04T18:51:44.219Z,101077.39
2018-08-04T18:54:13.402Z,101074.09
2018-08-04T18:56:42.657Z,101085.78
2018-08-04T18:59:11.937Z,101090.28
2018-08-04T19:01:41.107Z,101083.68
2018-08-04T19:04:10.234Z,101088.42
2018-08-04T19:06:39.440Z,101093.88
2018-08-04T19:09:09.725Z,101095.98
2018-08-04T19:11:38.867Z,101091.09
2018-08-04T19:14:08.504Z,101094.73
2018-08-04T19:16:37.641Z,101100.95
2018-08-04T19:19:06.841Z,101098.81
2018-08-04T19:21:35.960Z,101100.00
2018-08-04T19:24:05.098Z,101099.14
2018-08-04T19:26:34.258Z,101103.41
2018-08-04T19:29:03.442Z,101105.83
2018-08-04T19:31:32.569Z,101109.05
2018-08-04T19:34:01.713Z,101106.88
2018-08-04T19:36:30.857Z,101118.28
2018-08-04T19:39:00.018Z,101120.94
2018-08-04T19:41:29.145Z,101115.28
2018-08-04T19:43:58.327Z,101118.70
2018-08-04T19:46:27.403Z,101129.73
2018-08-04T19:48:56.521Z,101127.27
2018-08-04T19:51:25.658Z,101130.16
2018-08-04T19:53:54.790Z,101127.39
2018-08-04T19:56:23.910Z,101128.51
2018-08-04T19:58:53.201Z,101136.98
2018-08-04T20:01:22.406Z,101139.02
2018-08-04T20:03:51.547Z,101142.88
2018-08-04T20:06:20.657Z,101144.30
2018-08-04T20:08:55.450Z,101143.31
2018-08-04T20:11:24.595Z,101141.92
2018-08-04T20:13:53.710Z,101152.22
2018-08-04T20:16:22.841Z,101155.08
2018-08-04T20:18:52.378Z,101158.19
2018-08-04T20:21:21.530Z,101166.30
2018-08-04T20:23:50.646Z,101167.16
2018-08-04T20:26:19.801Z,101169.45
2018-08-04T20:28:48.953Z,101164.61
2018-08-04T20:31:18.217Z,101164.30
2018-08-04T20:33:47.322Z,101170.80
2018-08-04T20:36:16.482Z,101179.50
2018-08-04T20:38:45.739Z,101182.08
2018-08-04T20:41:14.938Z,101184.90
2018-08-04T20:43:47.501Z,101180.15
2018-08-04T20:46:16.697Z,101179.81
2018-08-04T20:48:45.893Z,101186.48
2018-08-04T20:51:15.124Z,101192.40
2018-08-04T20:53:44.307Z,101189.36
2018-08-04T20:56:13.553Z,101191.44
2018-08-04T20:58:42.781Z,101200.98
2018-08-04T21:01:23.036Z,101206.14
2018-08-04T21:03:52.178Z,101207.88
2018-08-04T21:06:21.311Z,101204.85
2018-08-04T21:08:50.448Z,101210.19
2018-08-04T21:11:24.935Z,101210.59
2018-08-04T21:13:54.061Z,101213.61
2018-08-04T21:16:23.210Z,101212.59
2018-08-04T21:18:52.507Z,101210.20
2018-08-04T21:21:21.623Z,101216.59
2018-08-04T21:23:50.738Z,101220.13
2018-08-04T21:26:19.987Z,101220.20
2018-08-04T21:28:49.111Z,101222.41
2018-08-04T21:31:18.265Z,101221.62
2018-08-04T21:33:47.435Z,101225.81
2018-08-04T21:36:16.595Z,101230.39
2018-08-04T21:38:45.769Z,101237.64
2018-08-04T21:41:14.998Z,101240.06
2018-08-04T21:43:44.128Z,101246.39
2018-08-04T21:46:13.322Z,101253.80
2018-08-04T21:48:42.526Z,101249.74
2018-08-04T21:51:11.727Z,101253.74
2018-08-04T21:53:40.843Z,101253.46
2018-08-04T21:56:09.988Z,101257.17
2018-08-04T21:58:39.117Z,101262.48
2018-08-04T22:01:12.309Z,101265.52
2018-08-04T22:03:42.678Z,101262.71
2018-08-04T22:06:12.136Z,101262.92
2018-08-04T22:08:52.495Z,101261.85
2018-08-04T22:11:21.710Z,101272.20
2018-08-04T22:13:50.809Z,101270.33
2018-08-04T22:16:19.965Z,101270.80
2018-08-04T22:18:49.114Z,101269.46
2018-08-04T22:21:18.238Z,101267.66
2018-08-04T22:23:47.562Z,101267.44
2018-08-04T22:26:17.118Z,101265.67
2018-08-04T22:28:47.301Z,101269.74
2018-08-04T22:31:16.422Z,101266.90
2018-08-04T22:33:45.586Z,101277.40
2018-08-04T22:36:14.703Z,101277.23
2018-08-04T22:38:43.855Z,101281.17
2018-08-04T22:41:13.067Z,101278.09
2018-08-04T22:43:42.147Z,101281.03
2018-08-04T22:46:14.737Z,101284.85
2018-08-04T22:48:46.106Z,101279.89
2018-08-04T22:51:19.490Z,101282.86
2018-08-04T22:53:48.847Z,101281.47
2018-08-04T22:56:17.977Z,101285.42
2018-08-04T22:58:47.105Z,101285.94
2018-08-04T23:01:16.289Z,101289.39
2018-08-04T23:06:14.551Z,101284.11
2018-08-04T23:08:43.687Z,101285.91
2018-08-04T23:11:12.805Z,101289.99
2018-08-04T23:13:41.946Z,101291.88
2018-08-04T23:16:11.079Z,101292.05
2018-08-04T23:18:40.218Z,101292.77
2018-08-04T23:21:09.743Z,101293.06
2018-08-04T23:23:39.047Z,101295.73
2018-08-04T23:26:08.177Z,101293.83
2018-08-04T23:28:37.293Z,101304.25
2018-08-04T23:31:07.465Z,101305.05
2018-08-04T23:33:36.625Z,101305.34
2018-08-04T23:36:05.733Z,101309.24
2018-08-04T23:38:34.849Z,101309.73
2018-08-04T23:41:05.010Z,101311.86
2018-08-04T23:43:34.153Z,101307.94
2018-08-04T23:46:03.307Z,101312.86
2018-08-04T23:48:32.408Z,101314.44
2018-08-04T23:51:01.525Z,101310.66
2018-08-04T23:53:30.621Z,101317.70
2018-08-04T23:55:59.810Z,101312.84
2018-08-04T23:58:28.965Z,101319.82
